sensor_id;sensor_type;location;lat;lon;timestamp;P1;durP1;ratioP1;P2;durP2;ratioP2
68484;SDS011;55472;50.060;21.960;2024-03-08T00:01:31;24.02;;;8.25;;
68484;SDS011;55472;50.060;21.960;2024-03-08T00:03:57;18.70;;;7.85;;
68484;SDS011;55472;50.060;21.960;2024-03-08T00:06:23;23.37;;;7.50;;
68484;SDS011;55472;50.060;21.960;2024-03-08T00:08:50;22.67;;;8.82;;
68484;SDS011;55472;50.060;21.960;2024-03-08T00:11:16;18.27;;;7.72;;
68484;SDS011;55472;50.060;21.960;2024-03-08T00:13:42;19.85;;;7.57;;
68484;SDS011;55472;50.060;21.960;2024-03-08T00:16:10;23.65;;;8.27;;
68484;SDS011;55472;50.060;21.960;2024-03-08T00:18:37;20.63;;;7.80;;
68484;SDS011;55472;50.060;21.960;2024-03-08T00:21:03;21.83;;;8.18;;
68484;SDS011;55472;50.060;21.960;2024-03-08T00:23:29;22.63;;;8.23;;
68484;SDS011;55472;50.060;21.960;2024-03-08T00:25:56;23.58;;;8.25;;
68484;SDS011;55472;50.060;21.960;2024-03-08T00:28:22;23.27;;;8.18;;
68484;SDS011;55472;50.060;21.960;2024-03-08T00:30:50;25.30;;;7.93;;
68484;SDS011;55472;50.060;21.960;2024-03-08T00:33:16;24.27;;;8.43;;
68484;SDS011;55472;50.060;21.960;2024-03-08T00:35:42;23.50;;;8.45;;
68484;SDS011;55472;50.060;21.960;2024-03-08T00:38:08;20.83;;;8.38;;
68484;SDS011;55472;50.060;21.960;2024-03-08T00:40:35;25.27;;;7.93;;
68484;SDS011;55472;50.060;21.960;2024-03-08T00:43:01;20.53;;;7.67;;
68484;SDS011;55472;50.060;21.960;2024-03-08T00:45:29;24.95;;;8.80;;
68484;SDS011;55472;50.060;21.960;2024-03-08T00:47:55;26.00;;;8.80;;
68484;SDS011;55472;50.060;21.960;2024-03-08T00:50:21;24.30;;;9.02;;
68484;SDS011;55472;50.060;21.960;2024-03-08T00:52:47;24.92;;;8.18;;
68484;SDS011;55472;50.060;21.960;2024-03-08T00:55:14;23.90;;;7.97;;
68484;SDS011;55472;50.060;21.960;2024-03-08T00:57:40;22.75;;;8.35;;
68484;SDS011;55472;50.060;21.960;2024-03-08T01:00:07;19.83;;;8.18;;
68484;SDS011;55472;50.060;21.960;2024-03-08T01:02:37;21.67;;;7.88;;
68484;SDS011;55472;50.060;21.960;2024-03-08T01:05:05;22.42;;;8.02;;
68484;SDS011;55472;50.060;21.960;2024-03-08T01:07:35;24.43;;;8.23;;
68484;SDS011;55472;50.060;21.960;2024-03-08T01:10:04;23.05;;;7.78;;
68484;SDS011;55472;50.060;21.960;2024-03-08T01:12:34;24.15;;;8.60;;
68484;SDS011;55472;50.060;21.960;2024-03-08T01:15:01;26.05;;;8.43;;
68484;SDS011;55472;50.060;21.960;2024-03-08T01:17:27;24.65;;;8.40;;
68484;SDS011;55472;50.060;21.960;2024-03-08T01:19:53;17.47;;;7.27;;
68484;SDS011;55472;50.060;21.960;2024-03-08T01:22:19;23.33;;;8.60;;
68484;SDS011;55472;50.060;21.960;2024-03-08T01:24:46;22.17;;;7.82;;
68484;SDS011;55472;50.060;21.960;2024-03-08T01:27:12;27.20;;;9.07;;
68484;SDS011;55472;50.060;21.960;2024-03-08T01:29:38;21.95;;;8.23;;
68484;SDS011;55472;50.060;21.960;2024-03-08T01:32:04;26.67;;;9.27;;
68484;SDS011;55472;50.060;21.960;2024-03-08T01:34:31;26.35;;;8.70;;
68484;SDS011;55472;50.060;21.960;2024-03-08T01:36:58;24.63;;;7.95;;
68484;SDS011;55472;50.060;21.960;2024-03-08T01:39:25;23.38;;;8.45;;
68484;SDS011;55472;50.060;21.960;2024-03-08T01:41:51;26.58;;;8.07;;
68484;SDS011;55472;50.060;21.960;2024-03-08T01:44:19;24.43;;;8.40;;
68484;SDS011;55472;50.060;21.960;2024-03-08T01:46:45;26.58;;;8.43;;
68484;SDS011;55472;50.060;21.960;2024-03-08T01:49:13;21.05;;;8.23;;
68484;SDS011;55472;50.060;21.960;2024-03-08T01:51:40;24.15;;;8.38;;
68484;SDS011;55472;50.060;21.960;2024-03-08T01:54:07;25.67;;;8.88;;
68484;SDS011;55472;50.060;21.960;2024-03-08T01:56:36;25.07;;;8.57;;
68484;SDS011;55472;50.060;21.960;2024-03-08T01:59:04;26.42;;;9.35;;
68484;SDS011;55472;50.060;21.960;2024-03-08T02:01:33;25.02;;;9.05;;
68484;SDS011;55472;50.060;21.960;2024-03-08T02:04:00;25.00;;;8.23;;
68484;SDS011;55472;50.060;21.960;2024-03-08T02:06:26;24.98;;;8.13;;
68484;SDS011;55472;50.060;21.960;2024-03-08T02:08:52;27.38;;;8.57;;
68484;SDS011;55472;50.060;21.960;2024-03-08T02:11:18;23.57;;;8.00;;
68484;SDS011;55472;50.060;21.960;2024-03-08T02:13:46;26.50;;;8.20;;
68484;SDS011;55472;50.060;21.960;2024-03-08T02:16:12;24.80;;;8.85;;
68484;SDS011;55472;50.060;21.960;2024-03-08T02:18:46;24.42;;;9.02;;
68484;SDS011;55472;50.060;21.960;2024-03-08T02:21:12;23.52;;;8.63;;
68484;SDS011;55472;50.060;21.960;2024-03-08T02:23:39;24.88;;;8.45;;
68484;SDS011;55472;50.060;21.960;2024-03-08T02:26:05;27.80;;;8.77;;
68484;SDS011;55472;50.060;21.960;2024-03-08T02:28:32;24.27;;;8.45;;
68484;SDS011;55472;50.060;21.960;2024-03-08T02:30:59;26.42;;;9.43;;
68484;SDS011;55472;50.060;21.960;2024-03-08T02:33:26;23.17;;;9.00;;
68484;SDS011;55472;50.060;21.960;2024-03-08T02:35:54;22.27;;;8.27;;
68484;SDS011;55472;50.060;21.960;2024-03-08T02:38:21;29.03;;;9.50;;
68484;SDS011;55472;50.060;21.960;2024-03-08T02:40:50;26.95;;;9.07;;
68484;SDS011;55472;50.060;21.960;2024-03-08T02:43:19;29.38;;;9.80;;
68484;SDS011;55472;50.060;21.960;2024-03-08T02:45:50;27.85;;;8.95;;
68484;SDS011;55472;50.060;21.960;2024-03-08T02:48:18;33.03;;;9.80;;
68484;SDS011;55472;50.060;21.960;2024-03-08T02:50:44;29.33;;;9.48;;
68484;SDS011;55472;50.060;21.960;2024-03-08T02:53:11;33.90;;;9.55;;
68484;SDS011;55472;50.060;21.960;2024-03-08T02:55:38;27.57;;;9.07;;
68484;SDS011;55472;50.060;21.960;2024-03-08T02:58:06;23.77;;;9.50;;
68484;SDS011;55472;50.060;21.960;2024-03-08T03:00:36;24.23;;;8.75;;
68484;SDS011;55472;50.060;21.960;2024-03-08T03:03:04;25.45;;;8.90;;
68484;SDS011;55472;50.060;21.960;2024-03-08T03:05:31;27.17;;;8.90;;
68484;SDS011;55472;50.060;21.960;2024-03-08T03:07:59;23.73;;;9.07;;
68484;SDS011;55472;50.060;21.960;2024-03-08T03:10:25;27.42;;;9.80;;
68484;SDS011;55472;50.060;21.960;2024-03-08T03:12:51;28.55;;;9.40;;
68484;SDS011;55472;50.060;21.960;2024-03-08T03:15:18;27.15;;;8.85;;
68484;SDS011;55472;50.060;21.960;2024-03-08T03:17:48;27.80;;;8.95;;
68484;SDS011;55472;50.060;21.960;2024-03-08T03:20:18;24.30;;;9.13;;
68484;SDS011;55472;50.060;21.960;2024-03-08T03:22:51;27.33;;;8.98;;
68484;SDS011;55472;50.060;21.960;2024-03-08T03:25:18;26.42;;;9.23;;
68484;SDS011;55472;50.060;21.960;2024-03-08T03:27:54;27.35;;;9.07;;
68484;SDS011;55472;50.060;21.960;2024-03-08T03:30:24;27.08;;;9.38;;
68484;SDS011;55472;50.060;21.960;2024-03-08T03:32:52;27.30;;;9.47;;
68484;SDS011;55472;50.060;21.960;2024-03-08T03:35:20;26.90;;;9.88;;
68484;SDS011;55472;50.060;21.960;2024-03-08T03:37:47;27.83;;;9.93;;
68484;SDS011;55472;50.060;21.960;2024-03-08T03:40:27;28.67;;;9.90;;
68484;SDS011;55472;50.060;21.960;2024-03-08T03:42:54;29.83;;;9.73;;
68484;SDS011;55472;50.060;21.960;2024-03-08T03:45:21;24.70;;;10.13;;
68484;SDS011;55472;50.060;21.960;2024-03-08T03:47:48;27.85;;;8.90;;
68484;SDS011;55472;50.060;21.960;2024-03-08T03:50:15;31.35;;;9.80;;
68484;SDS011;55472;50.060;21.960;2024-03-08T03:52:41;23.45;;;9.63;;
68484;SDS011;55472;50.060;21.960;2024-03-08T03:55:07;31.40;;;10.47;;
68484;SDS011;55472;50.060;21.960;2024-03-08T03:57:34;25.98;;;9.63;;
68484;SDS011;55472;50.060;21.960;2024-03-08T04:00:00;26.52;;;9.35;;
68484;SDS011;55472;50.060;21.960;2024-03-08T04:02:28;27.33;;;9.40;;
68484;SDS011;55472;50.060;21.960;2024-03-08T04:04:54;25.45;;;9.07;;
68484;SDS011;55472;50.060;21.960;2024-03-08T04:07:22;27.17;;;10.07;;
68484;SDS011;55472;50.060;21.960;2024-03-08T04:09:48;26.20;;;9.13;;
68484;SDS011;55472;50.060;21.960;2024-03-08T04:12:14;27.92;;;9.43;;
68484;SDS011;55472;50.060;21.960;2024-03-08T04:14:41;25.42;;;8.95;;
68484;SDS011;55472;50.060;21.960;2024-03-08T04:17:08;24.92;;;9.25;;
68484;SDS011;55472;50.060;21.960;2024-03-08T04:19:34;20.97;;;8.50;;
68484;SDS011;55472;50.060;21.960;2024-03-08T04:22:01;23.65;;;9.02;;
68484;SDS011;55472;50.060;21.960;2024-03-08T04:24:27;23.27;;;9.10;;
68484;SDS011;55472;50.060;21.960;2024-03-08T04:26:53;26.55;;;9.55;;
68484;SDS011;55472;50.060;21.960;2024-03-08T04:29:20;22.65;;;8.75;;
68484;SDS011;55472;50.060;21.960;2024-03-08T04:31:47;24.53;;;9.27;;
68484;SDS011;55472;50.060;21.960;2024-03-08T04:34:13;26.35;;;9.63;;
68484;SDS011;55472;50.060;21.960;2024-03-08T04:36:40;23.48;;;8.30;;
68484;SDS011;55472;50.060;21.960;2024-03-08T04:39:06;28.52;;;9.68;;
68484;SDS011;55472;50.060;21.960;2024-03-08T04:41:37;24.33;;;9.03;;
68484;SDS011;55472;50.060;21.960;2024-03-08T04:44:04;27.05;;;8.90;;
68484;SDS011;55472;50.060;21.960;2024-03-08T04:46:31;30.48;;;9.65;;
68484;SDS011;55472;50.060;21.960;2024-03-08T04:48:57;31.80;;;10.60;;
68484;SDS011;55472;50.060;21.960;2024-03-08T04:51:25;27.88;;;9.60;;
68484;SDS011;55472;50.060;21.960;2024-03-08T04:53:51;24.47;;;8.67;;
68484;SDS011;55472;50.060;21.960;2024-03-08T04:56:17;25.70;;;9.52;;
68484;SDS011;55472;50.060;21.960;2024-03-08T04:58:45;27.40;;;10.02;;
68484;SDS011;55472;50.060;21.960;2024-03-08T05:01:14;26.65;;;8.80;;
68484;SDS011;55472;50.060;21.960;2024-03-08T05:03:40;26.80;;;8.98;;
68484;SDS011;55472;50.060;21.960;2024-03-08T05:06:07;24.23;;;9.03;;
68484;SDS011;55472;50.060;21.960;2024-03-08T05:08:33;28.17;;;10.07;;
68484;SDS011;55472;50.060;21.960;2024-03-08T05:11:00;25.75;;;8.95;;
68484;SDS011;55472;50.060;21.960;2024-03-08T05:13:31;25.25;;;9.65;;
68484;SDS011;55472;50.060;21.960;2024-03-08T05:15:58;26.45;;;8.98;;
68484;SDS011;55472;50.060;21.960;2024-03-08T05:18:24;25.13;;;9.57;;
68484;SDS011;55472;50.060;21.960;2024-03-08T05:20:54;25.83;;;8.88;;
68484;SDS011;55472;50.060;21.960;2024-03-08T05:23:20;26.95;;;9.48;;
68484;SDS011;55472;50.060;21.960;2024-03-08T05:25:47;26.23;;;9.27;;
68484;SDS011;55472;50.060;21.960;2024-03-08T05:28:14;26.48;;;9.10;;
68484;SDS011;55472;50.060;21.960;2024-03-08T05:30:40;28.37;;;9.17;;
68484;SDS011;55472;50.060;21.960;2024-03-08T05:33:06;29.42;;;10.00;;
68484;SDS011;55472;50.060;21.960;2024-03-08T05:35:36;23.75;;;8.95;;
68484;SDS011;55472;50.060;21.960;2024-03-08T05:38:02;33.13;;;9.70;;
68484;SDS011;55472;50.060;21.960;2024-03-08T05:40:29;27.63;;;10.43;;
68484;SDS011;55472;50.060;21.960;2024-03-08T05:43:01;29.93;;;9.93;;
68484;SDS011;55472;50.060;21.960;2024-03-08T05:45:27;25.23;;;8.77;;
68484;SDS011;55472;50.060;21.960;2024-03-08T05:47:53;24.38;;;8.30;;
68484;SDS011;55472;50.060;21.960;2024-03-08T05:50:19;24.67;;;9.00;;
68484;SDS011;55472;50.060;21.960;2024-03-08T05:52:46;23.90;;;8.67;;
68484;SDS011;55472;50.060;21.960;2024-03-08T05:55:13;31.88;;;10.75;;
68484;SDS011;55472;50.060;21.960;2024-03-08T05:57:42;26.17;;;9.40;;
68484;SDS011;55472;50.060;21.960;2024-03-08T06:00:08;29.23;;;10.27;;
68484;SDS011;55472;50.060;21.960;2024-03-08T06:02:41;27.08;;;8.98;;
68484;SDS011;55472;50.060;21.960;2024-03-08T06:05:10;26.73;;;9.83;;
68484;SDS011;55472;50.060;21.960;2024-03-08T06:07:37;27.35;;;9.13;;
68484;SDS011;55472;50.060;21.960;2024-03-08T06:10:07;27.08;;;9.95;;
68484;SDS011;55472;50.060;21.960;2024-03-08T06:12:40;26.67;;;9.48;;
68484;SDS011;55472;50.060;21.960;2024-03-08T06:15:07;29.70;;;9.30;;
68484;SDS011;55472;50.060;21.960;2024-03-08T06:17:38;29.87;;;9.93;;
68484;SDS011;55472;50.060;21.960;2024-03-08T06:20:04;29.85;;;10.40;;
68484;SDS011;55472;50.060;21.960;2024-03-08T06:22:39;28.30;;;10.55;;
68484;SDS011;55472;50.060;21.960;2024-03-08T06:25:09;31.00;;;10.85;;
68484;SDS011;55472;50.060;21.960;2024-03-08T06:27:42;31.33;;;10.57;;
68484;SDS011;55472;50.060;21.960;2024-03-08T06:30:09;30.03;;;11.37;;
68484;SDS011;55472;50.060;21.960;2024-03-08T06:32:36;28.90;;;10.23;;
68484;SDS011;55472;50.060;21.960;2024-03-08T06:35:06;31.30;;;10.52;;
68484;SDS011;55472;50.060;21.960;2024-03-08T06:37:33;27.70;;;10.35;;
68484;SDS011;55472;50.060;21.960;2024-03-08T06:39:59;28.98;;;10.60;;
68484;SDS011;55472;50.060;21.960;2024-03-08T06:42:30;29.30;;;11.00;;
68484;SDS011;55472;50.060;21.960;2024-03-08T06:45:00;29.38;;;10.00;;
68484;SDS011;55472;50.060;21.960;2024-03-08T06:47:32;32.22;;;10.32;;
68484;SDS011;55472;50.060;21.960;2024-03-08T06:49:58;27.88;;;10.82;;
68484;SDS011;55472;50.060;21.960;2024-03-08T06:52:24;30.70;;;11.82;;
68484;SDS011;55472;50.060;21.960;2024-03-08T06:54:50;29.33;;;9.93;;
68484;SDS011;55472;50.060;21.960;2024-03-08T06:57:18;30.08;;;10.07;;
68484;SDS011;55472;50.060;21.960;2024-03-08T06:59:47;30.73;;;10.25;;
68484;SDS011;55472;50.060;21.960;2024-03-08T07:02:14;26.08;;;9.85;;
68484;SDS011;55472;50.060;21.960;2024-03-08T07:04:40;32.80;;;10.55;;
68484;SDS011;55472;50.060;21.960;2024-03-08T07:07:07;26.43;;;9.67;;
68484;SDS011;55472;50.060;21.960;2024-03-08T07:09:37;31.10;;;11.52;;
68484;SDS011;55472;50.060;21.960;2024-03-08T07:12:03;30.83;;;10.25;;
68484;SDS011;55472;50.060;21.960;2024-03-08T07:14:30;30.98;;;10.88;;
68484;SDS011;55472;50.060;21.960;2024-03-08T07:16:56;30.35;;;10.27;;
68484;SDS011;55472;50.060;21.960;2024-03-08T07:19:22;31.20;;;10.97;;
68484;SDS011;55472;50.060;21.960;2024-03-08T07:21:49;32.40;;;11.43;;
68484;SDS011;55472;50.060;21.960;2024-03-08T07:24:15;29.08;;;10.55;;
68484;SDS011;55472;50.060;21.960;2024-03-08T07:26:42;34.47;;;12.27;;
68484;SDS011;55472;50.060;21.960;2024-03-08T07:29:09;28.15;;;10.25;;
68484;SDS011;55472;50.060;21.960;2024-03-08T07:31:35;33.33;;;12.43;;
68484;SDS011;55472;50.060;21.960;2024-03-08T07:34:06;29.92;;;10.77;;
68484;SDS011;55472;50.060;21.960;2024-03-08T07:36:36;27.67;;;10.80;;
68484;SDS011;55472;50.060;21.960;2024-03-08T07:39:02;36.28;;;14.55;;
68484;SDS011;55472;50.060;21.960;2024-03-08T07:41:31;35.50;;;11.57;;
68484;SDS011;55472;50.060;21.960;2024-03-08T07:43:57;30.23;;;11.43;;
68484;SDS011;55472;50.060;21.960;2024-03-08T07:46:23;28.02;;;11.15;;
68484;SDS011;55472;50.060;21.960;2024-03-08T07:48:49;30.80;;;11.13;;
68484;SDS011;55472;50.060;21.960;2024-03-08T07:51:16;32.88;;;12.32;;
68484;SDS011;55472;50.060;21.960;2024-03-08T07:53:45;29.38;;;10.82;;
68484;SDS011;55472;50.060;21.960;2024-03-08T07:56:12;28.70;;;11.47;;
68484;SDS011;55472;50.060;21.960;2024-03-08T07:58:39;27.52;;;11.57;;
68484;SDS011;55472;50.060;21.960;2024-03-08T08:01:06;27.55;;;11.23;;
68484;SDS011;55472;50.060;21.960;2024-03-08T08:03:32;27.13;;;10.68;;
68484;SDS011;55472;50.060;21.960;2024-03-08T08:05:59;25.25;;;10.43;;
68484;SDS011;55472;50.060;21.960;2024-03-08T08:08:24;30.80;;;10.97;;
68484;SDS011;55472;50.060;21.960;2024-03-08T08:10:52;28.23;;;10.55;;
68484;SDS011;55472;50.060;21.960;2024-03-08T08:13:17;27.40;;;10.73;;
68484;SDS011;55472;50.060;21.960;2024-03-08T08:15:44;34.13;;;11.02;;
68484;SDS011;55472;50.060;21.960;2024-03-08T08:18:11;28.97;;;10.83;;
68484;SDS011;55472;50.060;21.960;2024-03-08T08:20:37;28.60;;;10.90;;
68484;SDS011;55472;50.060;21.960;2024-03-08T08:23:03;26.35;;;10.57;;
68484;SDS011;55472;50.060;21.960;2024-03-08T08:25:29;27.75;;;10.50;;
68484;SDS011;55472;50.060;21.960;2024-03-08T08:27:55;25.38;;;10.45;;
68484;SDS011;55472;50.060;21.960;2024-03-08T08:30:21;33.27;;;11.13;;
68484;SDS011;55472;50.060;21.960;2024-03-08T08:32:47;31.05;;;11.60;;
68484;SDS011;55472;50.060;21.960;2024-03-08T08:35:14;31.50;;;11.32;;
68484;SDS011;55472;50.060;21.960;2024-03-08T08:37:40;28.15;;;10.95;;
68484;SDS011;55472;50.060;21.960;2024-03-08T08:40:07;30.70;;;10.95;;
68484;SDS011;55472;50.060;21.960;2024-03-08T08:42:39;30.73;;;11.20;;
68484;SDS011;55472;50.060;21.960;2024-03-08T08:45:07;27.75;;;11.02;;
68484;SDS011;55472;50.060;21.960;2024-03-08T08:47:35;29.60;;;11.07;;
68484;SDS011;55472;50.060;21.960;2024-03-08T08:50:01;30.58;;;11.20;;
68484;SDS011;55472;50.060;21.960;2024-03-08T08:52:30;32.42;;;11.43;;
68484;SDS011;55472;50.060;21.960;2024-03-08T08:54:57;32.73;;;12.03;;
68484;SDS011;55472;50.060;21.960;2024-03-08T08:57:23;33.70;;;11.55;;
68484;SDS011;55472;50.060;21.960;2024-03-08T08:59:49;30.05;;;11.35;;
68484;SDS011;55472;50.060;21.960;2024-03-08T09:02:15;32.00;;;10.63;;
68484;SDS011;55472;50.060;21.960;2024-03-08T09:04:46;31.13;;;11.85;;
68484;SDS011;55472;50.060;21.960;2024-03-08T09:07:13;27.37;;;10.90;;
68484;SDS011;55472;50.060;21.960;2024-03-08T09:09:41;25.15;;;9.90;;
68484;SDS011;55472;50.060;21.960;2024-03-08T09:12:08;25.30;;;10.32;;
68484;SDS011;55472;50.060;21.960;2024-03-08T09:14:41;25.95;;;9.68;;
68484;SDS011;55472;50.060;21.960;2024-03-08T09:17:08;31.40;;;10.85;;
68484;SDS011;55472;50.060;21.960;2024-03-08T09:19:35;27.20;;;11.80;;
68484;SDS011;55472;50.060;21.960;2024-03-08T09:22:02;27.55;;;10.20;;
68484;SDS011;55472;50.060;21.960;2024-03-08T09:24:30;26.83;;;10.25;;
68484;SDS011;55472;50.060;21.960;2024-03-08T09:26:56;24.90;;;10.20;;
68484;SDS011;55472;50.060;21.960;2024-03-08T09:29:24;29.35;;;10.88;;
68484;SDS011;55472;50.060;21.960;2024-03-08T09:31:50;25.83;;;9.63;;
68484;SDS011;55472;50.060;21.960;2024-03-08T09:34:17;25.55;;;9.95;;
68484;SDS011;55472;50.060;21.960;2024-03-08T09:36:44;22.48;;;8.88;;
68484;SDS011;55472;50.060;21.960;2024-03-08T09:39:10;27.70;;;9.93;;
68484;SDS011;55472;50.060;21.960;2024-03-08T09:41:45;32.50;;;9.07;;
68484;SDS011;55472;50.060;21.960;2024-03-08T09:44:15;24.53;;;8.27;;
68484;SDS011;55472;50.060;21.960;2024-03-08T09:46:42;24.55;;;9.35;;
68484;SDS011;55472;50.060;21.960;2024-03-08T09:49:08;23.35;;;8.85;;
68484;SDS011;55472;50.060;21.960;2024-03-08T09:51:36;27.20;;;9.60;;
68484;SDS011;55472;50.060;21.960;2024-03-08T09:54:07;22.58;;;8.85;;
68484;SDS011;55472;50.060;21.960;2024-03-08T09:56:34;25.40;;;9.53;;
68484;SDS011;55472;50.060;21.960;2024-03-08T09:59:02;25.23;;;9.65;;
68484;SDS011;55472;50.060;21.960;2024-03-08T10:01:30;28.20;;;11.02;;
68484;SDS011;55472;50.060;21.960;2024-03-08T10:03:57;25.42;;;9.93;;
68484;SDS011;55472;50.060;21.960;2024-03-08T10:06:23;25.47;;;9.33;;
68484;SDS011;55472;50.060;21.960;2024-03-08T10:08:50;23.00;;;8.75;;
68484;SDS011;55472;50.060;21.960;2024-03-08T10:11:17;23.80;;;8.32;;
68484;SDS011;55472;50.060;21.960;2024-03-08T10:13:44;23.95;;;8.80;;
68484;SDS011;55472;50.060;21.960;2024-03-08T10:16:12;28.23;;;10.05;;
68484;SDS011;55472;50.060;21.960;2024-03-08T10:18:38;24.40;;;9.23;;
68484;SDS011;55472;50.060;21.960;2024-03-08T10:21:05;22.13;;;8.80;;
68484;SDS011;55472;50.060;21.960;2024-03-08T10:23:34;21.45;;;7.82;;
68484;SDS011;55472;50.060;21.960;2024-03-08T10:26:13;23.40;;;9.25;;
68484;SDS011;55472;50.060;21.960;2024-03-08T10:28:42;26.38;;;10.00;;
68484;SDS011;55472;50.060;21.960;2024-03-08T10:31:10;22.40;;;8.57;;
68484;SDS011;55472;50.060;21.960;2024-03-08T10:33:37;23.77;;;8.75;;
68484;SDS011;55472;50.060;21.960;2024-03-08T10:36:05;25.75;;;9.48;;
68484;SDS011;55472;50.060;21.960;2024-03-08T10:38:36;24.20;;;9.77;;
68484;SDS011;55472;50.060;21.960;2024-03-08T10:41:05;22.60;;;9.32;;
68484;SDS011;55472;50.060;21.960;2024-03-08T10:46:21;22.33;;;8.95;;
68484;SDS011;55472;50.060;21.960;2024-03-08T10:48:53;24.83;;;9.38;;
68484;SDS011;55472;50.060;21.960;2024-03-08T10:51:24;23.85;;;9.20;;
68484;SDS011;55472;50.060;21.960;2024-03-08T10:53:52;25.33;;;9.80;;
68484;SDS011;55472;50.060;21.960;2024-03-08T10:56:22;25.50;;;10.13;;
68484;SDS011;55472;50.060;21.960;2024-03-08T10:58:48;24.45;;;9.55;;
68484;SDS011;55472;50.060;21.960;2024-03-08T11:01:15;21.15;;;8.82;;
68484;SDS011;55472;50.060;21.960;2024-03-08T11:06:15;24.05;;;10.77;;
68484;SDS011;55472;50.060;21.960;2024-03-08T11:08:48;23.77;;;9.70;;
68484;SDS011;55472;50.060;21.960;2024-03-08T11:11:32;24.55;;;9.90;;
68484;SDS011;55472;50.060;21.960;2024-03-08T11:14:03;25.17;;;9.80;;
68484;SDS011;55472;50.060;21.960;2024-03-08T11:19:00;23.95;;;9.80;;
68484;SDS011;55472;50.060;21.960;2024-03-08T11:21:31;23.40;;;9.27;;
68484;SDS011;55472;50.060;21.960;2024-03-08T11:24:05;23.63;;;10.40;;
68484;SDS011;55472;50.060;21.960;2024-03-08T11:26:34;25.63;;;9.82;;
68484;SDS011;55472;50.060;21.960;2024-03-08T11:34:39;24.17;;;9.73;;
68484;SDS011;55472;50.060;21.960;2024-03-08T11:37:18;21.88;;;10.00;;
68484;SDS011;55472;50.060;21.960;2024-03-08T11:39:52;27.90;;;11.88;;
68484;SDS011;55472;50.060;21.960;2024-03-08T11:42:24;29.08;;;11.82;;
68484;SDS011;55472;50.060;21.960;2024-03-08T11:44:53;24.85;;;10.18;;
68484;SDS011;55472;50.060;21.960;2024-03-08T11:47:20;24.93;;;9.77;;
68484;SDS011;55472;50.060;21.960;2024-03-08T11:49:47;24.30;;;10.83;;
68484;SDS011;55472;50.060;21.960;2024-03-08T11:52:14;25.52;;;9.95;;
68484;SDS011;55472;50.060;21.960;2024-03-08T11:54:42;24.38;;;9.98;;
68484;SDS011;55472;50.060;21.960;2024-03-08T11:57:21;25.63;;;10.27;;
68484;SDS011;55472;50.060;21.960;2024-03-08T11:59:51;24.70;;;9.75;;
68484;SDS011;55472;50.060;21.960;2024-03-08T12:02:30;21.20;;;9.57;;
68484;SDS011;55472;50.060;21.960;2024-03-08T12:04:58;22.77;;;10.47;;
68484;SDS011;55472;50.060;21.960;2024-03-08T12:07:25;27.23;;;10.10;;
68484;SDS011;55472;50.060;21.960;2024-03-08T12:12:44;29.60;;;12.43;;
68484;SDS011;55472;50.060;21.960;2024-03-08T12:15:12;25.45;;;11.13;;
68484;SDS011;55472;50.060;21.960;2024-03-08T12:17:40;25.85;;;10.82;;
68484;SDS011;55472;50.060;21.960;2024-03-08T12:20:26;23.52;;;10.20;;
68484;SDS011;55472;50.060;21.960;2024-03-08T12:22:57;23.65;;;9.48;;
68484;SDS011;55472;50.060;21.960;2024-03-08T12:25:29;23.00;;;9.67;;
68484;SDS011;55472;50.060;21.960;2024-03-08T12:28:06;25.25;;;10.50;;
68484;SDS011;55472;50.060;21.960;2024-03-08T12:30:36;24.52;;;9.65;;
68484;SDS011;55472;50.060;21.960;2024-03-08T12:33:19;25.17;;;10.30;;
68484;SDS011;55472;50.060;21.960;2024-03-08T12:35:53;27.50;;;10.80;;
68484;SDS011;55472;50.060;21.960;2024-03-08T12:38:23;26.08;;;10.35;;
68484;SDS011;55472;50.060;21.960;2024-03-08T12:40:59;25.83;;;10.05;;
68484;SDS011;55472;50.060;21.960;2024-03-08T12:43:26;23.17;;;9.85;;
68484;SDS011;55472;50.060;21.960;2024-03-08T12:45:55;24.60;;;10.07;;
68484;SDS011;55472;50.060;21.960;2024-03-08T12:48:22;25.00;;;9.67;;
68484;SDS011;55472;50.060;21.960;2024-03-08T12:50:48;29.98;;;12.15;;
68484;SDS011;55472;50.060;21.960;2024-03-08T12:53:16;25.20;;;11.05;;
68484;SDS011;55472;50.060;21.960;2024-03-08T12:55:43;22.60;;;9.40;;
68484;SDS011;55472;50.060;21.960;2024-03-08T12:58:09;26.98;;;10.68;;
68484;SDS011;55472;50.060;21.960;2024-03-08T13:00:35;25.80;;;10.13;;
68484;SDS011;55472;50.060;21.960;2024-03-08T13:03:02;24.53;;;9.63;;
68484;SDS011;55472;50.060;21.960;2024-03-08T13:05:28;24.63;;;9.52;;
68484;SDS011;55472;50.060;21.960;2024-03-08T13:07:55;23.65;;;9.65;;
68484;SDS011;55472;50.060;21.960;2024-03-08T13:10:22;21.38;;;9.27;;
68484;SDS011;55472;50.060;21.960;2024-03-08T13:12:48;22.25;;;9.30;;
68484;SDS011;55472;50.060;21.960;2024-03-08T13:15:15;24.70;;;9.63;;
68484;SDS011;55472;50.060;21.960;2024-03-08T13:17:48;20.88;;;9.25;;
68484;SDS011;55472;50.060;21.960;2024-03-08T13:20:15;22.50;;;9.73;;
68484;SDS011;55472;50.060;21.960;2024-03-08T13:22:46;20.77;;;8.35;;
68484;SDS011;55472;50.060;21.960;2024-03-08T13:25:12;23.38;;;9.55;;
68484;SDS011;55472;50.060;21.960;2024-03-08T13:27:40;26.27;;;11.02;;
68484;SDS011;55472;50.060;21.960;2024-03-08T13:30:11;26.02;;;9.73;;
68484;SDS011;55472;50.060;21.960;2024-03-08T13:32:39;22.50;;;8.97;;
68484;SDS011;55472;50.060;21.960;2024-03-08T13:35:09;24.07;;;9.57;;
68484;SDS011;55472;50.060;21.960;2024-03-08T13:37:39;24.38;;;10.02;;
68484;SDS011;55472;50.060;21.960;2024-03-08T13:40:07;23.98;;;9.77;;
68484;SDS011;55472;50.060;21.960;2024-03-08T13:42:41;22.63;;;9.68;;
68484;SDS011;55472;50.060;21.960;2024-03-08T13:45:08;25.92;;;10.15;;
68484;SDS011;55472;50.060;21.960;2024-03-08T13:47:40;24.05;;;9.32;;
68484;SDS011;55472;50.060;21.960;2024-03-08T13:50:07;23.65;;;9.77;;
68484;SDS011;55472;50.060;21.960;2024-03-08T13:52:40;26.53;;;10.90;;
68484;SDS011;55472;50.060;21.960;2024-03-08T13:55:06;26.45;;;9.50;;
68484;SDS011;55472;50.060;21.960;2024-03-08T13:57:33;24.48;;;9.13;;
68484;SDS011;55472;50.060;21.960;2024-03-08T13:59:59;24.07;;;9.57;;
68484;SDS011;55472;50.060;21.960;2024-03-08T14:02:25;24.40;;;9.90;;
68484;SDS011;55472;50.060;21.960;2024-03-08T14:04:54;24.38;;;9.60;;
68484;SDS011;55472;50.060;21.960;2024-03-08T14:07:20;26.05;;;10.27;;
68484;SDS011;55472;50.060;21.960;2024-03-08T14:09:46;24.02;;;9.45;;
68484;SDS011;55472;50.060;21.960;2024-03-08T14:12:12;22.40;;;9.40;;
68484;SDS011;55472;50.060;21.960;2024-03-08T14:14:40;25.40;;;9.63;;
68484;SDS011;55472;50.060;21.960;2024-03-08T14:17:10;26.00;;;10.93;;
68484;SDS011;55472;50.060;21.960;2024-03-08T14:19:36;32.05;;;12.27;;
68484;SDS011;55472;50.060;21.960;2024-03-08T14:22:04;30.85;;;11.95;;
68484;SDS011;55472;50.060;21.960;2024-03-08T14:24:33;34.50;;;13.33;;
68484;SDS011;55472;50.060;21.960;2024-03-08T14:27:01;31.45;;;11.65;;
68484;SDS011;55472;50.060;21.960;2024-03-08T14:29:28;26.45;;;10.40;;
68484;SDS011;55472;50.060;21.960;2024-03-08T14:31:58;23.30;;;9.45;;
68484;SDS011;55472;50.060;21.960;2024-03-08T14:34:24;28.38;;;10.25;;
68484;SDS011;55472;50.060;21.960;2024-03-08T14:36:55;24.63;;;10.10;;